createdAt,value
2022-07-31T00:01:09.215Z,91835.03
2022-07-31T00:04:12.357Z,91832.00
2022-07-31T00:07:15.421Z,91836.03
2022-07-31T00:10:18.525Z,91832.50
2022-07-31T00:13:57.475Z,91839.47
2022-07-31T00:16:44.860Z,91844.00
2022-07-31T00:19:48.360Z,91846.56
2022-07-31T00:22:52.027Z,91839.59
2022-07-31T00:25:55.298Z,91837.94
2022-07-31T00:29:01.685Z,91844.41
2022-07-31T00:32:05.965Z,91845.06
2022-07-31T00:35:09.854Z,91841.09
2022-07-31T00:38:31.388Z,91837.34
2022-07-31T00:41:45.948Z,91844.72
2022-07-31T00:44:49.930Z,91839.53
2022-07-31T00:47:55.712Z,91845.69
2022-07-31T00:50:59.125Z,91844.78
2022-07-31T00:54:02.143Z,91836.22
2022-07-31T00:57:06.029Z,91832.31
2022-07-31T01:00:09.915Z,91829.59
2022-07-31T01:03:12.966Z,91824.50
2022-07-31T01:06:16.311Z,91825.13
2022-07-31T01:09:19.607Z,91830.56
2022-07-31T01:12:30.948Z,91829.63
2022-07-31T01:15:35.382Z,91825.31
2022-07-31T01:18:39.956Z,91826.25
2022-07-31T01:22:37.189Z,91821.91
2022-07-31T01:25:57.594Z,91827.63
2022-07-31T01:29:15.773Z,91824.75
2022-07-31T01:32:27.429Z,91828.34
2022-07-31T01:35:43.499Z,91831.47
2022-07-31T01:38:50.814Z,91823.59
2022-07-31T01:41:54.671Z,91813.69
2022-07-31T01:45:01.039Z,91817.88
2022-07-31T01:48:05.331Z,91816.59
2022-07-31T01:51:14.241Z,91817.31
2022-07-31T01:54:20.047Z,91815.47
2022-07-31T01:57:26.533Z,91809.63
2022-07-31T02:00:33.683Z,91796.13
2022-07-31T02:03:45.762Z,91794.56
2022-07-31T02:06:52.108Z,91796.88
2022-07-31T02:09:58.845Z,91789.97
2022-07-31T02:13:08.811Z,91806.00
2022-07-31T02:16:13.766Z,91817.50
2022-07-31T02:19:17.984Z,91824.59
2022-07-31T02:22:21.090Z,91820.00
2022-07-31T02:25:28.536Z,91805.50
2022-07-31T02:28:33.069Z,91810.78
2022-07-31T02:31:37.242Z,91809.84
2022-07-31T02:34:40.603Z,91820.34
2022-07-31T02:37:45.613Z,91820.41
2022-07-31T02:40:54.086Z,91824.59
2022-07-31T02:43:58.069Z,91822.69
2022-07-31T02:47:03.139Z,91816.63
2022-07-31T02:50:07.432Z,91814.91
2022-07-31T02:53:11.714Z,91811.22
2022-07-31T02:56:16.449Z,91815.91
2022-07-31T02:59:19.698Z,91817.47
2022-07-31T03:02:40.693Z,91814.38
2022-07-31T03:05:44.403Z,91823.13
2022-07-31T03:08:47.448Z,91818.41
2022-07-31T03:11:54.824Z,91811.50
2022-07-31T03:15:00.948Z,91810.63
2022-07-31T03:18:11.394Z,91807.31
2022-07-31T03:21:18.008Z,91797.38
2022-07-31T03:24:21.746Z,91796.00
2022-07-31T03:27:25.123Z,91789.41
2022-07-31T03:30:28.202Z,91781.69
2022-07-31T03:33:33.030Z,91789.66
2022-07-31T03:36:36.095Z,91789.31
2022-07-31T03:39:39.783Z,91781.34
2022-07-31T03:42:49.603Z,91785.19
2022-07-31T03:45:53.557Z,91787.59
2022-07-31T03:48:56.919Z,91789.41
2022-07-31T03:52:02.912Z,91796.75
2022-07-31T03:55:08.842Z,91795.75
2022-07-31T03:58:12.839Z,91786.09
2022-07-31T04:01:17.491Z,91783.31
2022-07-31T04:04:25.283Z,91785.31
2022-07-31T04:07:36.794Z,91789.41
2022-07-31T04:10:40.031Z,91779.31
2022-07-31T04:13:46.778Z,91781.44
2022-07-31T04:16:50.226Z,91784.03
2022-07-31T04:19:53.514Z,91774.81
2022-07-31T04:22:56.727Z,91778.84
2022-07-31T04:26:26.100Z,91769.78
2022-07-31T04:29:39.705Z,91763.66
2022-07-31T04:32:42.893Z,91759.81
2022-07-31T04:35:48.474Z,91762.56
2022-07-31T04:38:51.459Z,91763.75
2022-07-31T04:41:54.650Z,91764.03
2022-07-31T04:44:57.834Z,91742.78
2022-07-31T04:48:00.937Z,91743.03
2022-07-31T04:51:05.198Z,91740.59
2022-07-31T04:54:08.240Z,91738.97
2022-07-31T04:57:11.383Z,91729.84
2022-07-31T05:00:15.185Z,91723.69
2022-07-31T05:03:18.395Z,91724.38
2022-07-31T05:06:21.540Z,91729.44
2022-07-31T05:09:25.691Z,91731.22
2022-07-31T05:12:34.971Z,91727.69
2022-07-31T05:15:38.043Z,91723.00
2022-07-31T05:18:41.522Z,91723.03
2022-07-31T05:22:02.932Z,91729.31
2022-07-31T05:25:24.469Z,91727.88
2022-07-31T05:28:30.118Z,91721.34
2022-07-31T05:31:34.756Z,91718.75
2022-07-31T05:34:38.215Z,91710.03
2022-07-31T05:37:41.422Z,91716.06
2022-07-31T05:40:46.137Z,91715.69
2022-07-31T05:44:15.184Z,91705.81
2022-07-31T05:47:21.776Z,91704.44
2022-07-31T05:50:25.688Z,91698.91
2022-07-31T05:53:29.011Z,91699.72
2022-07-31T05:56:51.969Z,91698.91
2022-07-31T06:00:03.846Z,91687.06
2022-07-31T06:03:14.714Z,91680.63
2022-07-31T06:06:38.069Z,91679.38
2022-07-31T06:09:41.535Z,91680.00
2022-07-31T06:12:44.824Z,91678.56
2022-07-31T06:15:49.225Z,91677.06
2022-07-31T06:18:53.447Z,91673.78
2022-07-31T06:21:56.678Z,91674.59
2022-07-31T06:24:59.883Z,91677.69
2022-07-31T06:28:04.162Z,91673.34
2022-07-31T06:31:20.402Z,91675.63
2022-07-31T06:34:24.695Z,91669.81
2022-07-31T06:37:28.417Z,91665.69
2022-07-31T06:40:33.231Z,91666.28
2022-07-31T06:43:59.279Z,91667.16
2022-07-31T06:47:29.266Z,91666.94
2022-07-31T06:51:29.586Z,91658.44
2022-07-31T06:54:27.133Z,91656.38
2022-07-31T06:57:31.220Z,91657.63
2022-07-31T07:00:34.240Z,91652.19
2022-07-31T07:03:37.349Z,91652.19
2022-07-31T07:06:40.589Z,91661.75
2022-07-31T07:09:43.709Z,91652.84
2022-07-31T07:12:51.794Z,91657.19
2022-07-31T07:15:58.343Z,91659.88
2022-07-31T07:19:03.014Z,91653.88
2022-07-31T07:22:06.358Z,91660.53
2022-07-31T07:25:09.758Z,91656.56
2022-07-31T07:28:29.384Z,91661.31
2022-07-31T07:31:38.813Z,91654.50
2022-07-31T07:34:42.800Z,91663.00
2022-07-31T07:37:56.635Z,91658.44
2022-07-31T07:41:00.628Z,91670.28
2022-07-31T07:44:03.890Z,91661.34
2022-07-31T07:47:07.303Z,91651.34
2022-07-31T07:50:11.762Z,91645.88
2022-07-31T07:53:38.184Z,91651.50
2022-07-31T07:57:00.049Z,91646.59
2022-07-31T08:00:32.377Z,91648.28
2022-07-31T08:03:51.361Z,91635.59
2022-07-31T08:06:56.140Z,91630.41
2022-07-31T08:10:06.263Z,91638.28
2022-07-31T08:13:20.978Z,91641.16
2022-07-31T08:16:42.604Z,91651.44
2022-07-31T08:19:50.913Z,91652.03
2022-07-31T08:22:54.951Z,91646.38
2022-07-31T08:25:58.162Z,91649.44
2022-07-31T08:29:07.717Z,91639.63
2022-07-31T08:32:11.334Z,91645.16
2022-07-31T08:35:37.729Z,91642.03
2022-07-31T08:38:42.224Z,91651.06
2022-07-31T08:42:11.298Z,91655.00
2022-07-31T08:45:15.605Z,91664.38
2022-07-31T08:48:40.511Z,91695.31
2022-07-31T08:51:50.859Z,91710.69
2022-07-31T08:55:24.577Z,91723.41
2022-07-31T08:58:39.891Z,91739.38
2022-07-31T09:01:44.358Z,91732.25
2022-07-31T09:04:52.154Z,91741.97
2022-07-31T09:07:56.945Z,91734.38
2022-07-31T09:11:09.060Z,91728.78
2022-07-31T09:14:16.704Z,91714.41
2022-07-31T09:17:33.480Z,91703.72
2022-07-31T09:20:36.672Z,91712.03
2022-07-31T09:23:50.261Z,91696.16
2022-07-31T09:27:05.351Z,91681.50
2022-07-31T09:30:10.144Z,91677.00
2022-07-31T09:33:30.941Z,91693.72
2022-07-31T09:36:36.888Z,91689.78
2022-07-31T09:40:00.189Z,91683.00
2022-07-31T09:43:31.407Z,91675.38
2022-07-31T09:46:46.676Z,91660.66
2022-07-31T09:50:01.877Z,91662.94
2022-07-31T09:53:07.185Z,91652.50
2022-07-31T09:56:13.394Z,91642.81
2022-07-31T09:59:16.733Z,91643.94
2022-07-31T10:02:20.891Z,91631.66
2022-07-31T10:05:27.376Z,91629.72
2022-07-31T10:08:38.417Z,91623.63
2022-07-31T10:12:02.142Z,91615.00
2022-07-31T10:15:07.894Z,91617.13
2022-07-31T10:18:11.144Z,91626.19
2022-07-31T10:21:40.893Z,91624.13
2022-07-31T10:24:49.390Z,91626.03
2022-07-31T10:27:54.680Z,91627.75
2022-07-31T10:30:58.996Z,91634.44
2022-07-31T10:34:03.327Z,91633.94
2022-07-31T10:37:55.005Z,91631.63
2022-07-31T10:41:22.167Z,91627.72
2022-07-31T10:44:28.229Z,91633.38
2022-07-31T10:47:56.340Z,91636.84
2022-07-31T10:51:19.960Z,91635.44
2022-07-31T10:54:50.236Z,91622.81
2022-07-31T10:58:15.463Z,91634.81
2022-07-31T11:01:27.967Z,91649.53
2022-07-31T11:04:50.956Z,91649.44
2022-07-31T11:08:26.801Z,91649.41
2022-07-31T11:11:37.340Z,91655.16
2022-07-31T11:14:58.912Z,91660.34
2022-07-31T11:18:24.264Z,91658.88
2022-07-31T11:21:41.316Z,91662.03
2022-07-31T11:24:55.321Z,91681.75
2022-07-31T11:27:59.707Z,91682.94
2022-07-31T11:31:05.454Z,91691.31
2022-07-31T11:34:08.478Z,91688.53
2022-07-31T11:37:18.115Z,91696.69
2022-07-31T11:40:22.424Z,91703.34
2022-07-31T11:43:31.516Z,91702.22
2022-07-31T11:46:36.509Z,91705.03
2022-07-31T11:49:48.569Z,91699.47
2022-07-31T11:53:03.544Z,91708.91
2022-07-31T11:56:06.883Z,91708.72
2022-07-31T11:59:14.529Z,91708.59
2022-07-31T12:02:33.758Z,91705.63
2022-07-31T12:05:45.891Z,91717.25
2022-07-31T12:08:50.647Z,91697.97
2022-07-31T12:11:53.874Z,91701.44
2022-07-31T12:14:57.124Z,91694.19
2022-07-31T12:18:05.696Z,91690.59
2022-07-31T12:21:09.835Z,91706.00
2022-07-31T12:24:15.464Z,91700.66
2022-07-31T12:27:19.122Z,91705.06
2022-07-31T12:30:29.967Z,91707.72
2022-07-31T12:33:43.881Z,91715.41
2022-07-31T12:36:57.209Z,91722.66
2022-07-31T12:40:01.444Z,91753.63
2022-07-31T12:43:04.592Z,91758.34
2022-07-31T12:46:07.654Z,91755.50
2022-07-31T12:49:10.909Z,91743.72
2022-07-31T12:52:14.065Z,91767.75
2022-07-31T12:55:17.740Z,91773.03
2022-07-31T12:58:20.898Z,91753.72
2022-07-31T13:01:24.005Z,91754.31
2022-07-31T13:04:27.041Z,91747.06
2022-07-31T13:07:30.161Z,91734.00
2022-07-31T13:10:33.235Z,91714.66
2022-07-31T13:13:36.291Z,91710.72
2022-07-31T13:16:39.446Z,91706.63
2022-07-31T13:19:42.569Z,91705.34
2022-07-31T13:22:45.651Z,91718.47
2022-07-31T13:25:48.893Z,91717.66
2022-07-31T13:28:52.199Z,91717.63
2022-07-31T13:31:55.345Z,91722.75
2022-07-31T13:35:19.803Z,91730.88
2022-07-31T13:38:22.270Z,91724.84
2022-07-31T13:41:25.312Z,91721.50
2022-07-31T13:44:28.412Z,91712.31
2022-07-31T13:47:51.397Z,91713.19
2022-07-31T13:50:54.562Z,91713.00
2022-07-31T13:53:57.739Z,91721.41
2022-07-31T13:57:00.785Z,91713.63
2022-07-31T14:00:05.348Z,91726.03
2022-07-31T14:03:08.459Z,91725.97
2022-07-31T14:06:11.648Z,91724.00
2022-07-31T14:09:15.501Z,91727.31
2022-07-31T14:12:18.560Z,91740.78
2022-07-31T14:15:21.896Z,91739.16
2022-07-31T14:18:25.146Z,91742.44
2022-07-31T14:21:28.181Z,91737.47
2022-07-31T14:24:31.510Z,91734.44
2022-07-31T14:27:35.196Z,91730.50
2022-07-31T14:30:42.382Z,91729.22
2022-07-31T14:33:45.719Z,91726.19
2022-07-31T14:36:48.798Z,91730.41
2022-07-31T14:39:52.226Z,91734.19
2022-07-31T14:42:55.298Z,91731.19
2022-07-31T14:45:58.376Z,91736.91
2022-07-31T14:49:03.237Z,91731.97
2022-07-31T14:52:06.651Z,91737.66
2022-07-31T14:55:10.267Z,91735.03
2022-07-31T14:58:13.286Z,91729.34
2022-07-31T15:01:16.317Z,91731.63
2022-07-31T15:04:19.361Z,91725.53
2022-07-31T15:07:44.040Z,91728.84
2022-07-31T15:10:46.005Z,91721.59
2022-07-31T15:13:49.827Z,91727.16
2022-07-31T15:16:52.828Z,91723.88
2022-07-31T15:19:55.926Z,91723.50
2022-07-31T15:22:58.995Z,91731.31
2022-07-31T15:26:02.094Z,91730.03
2022-07-31T15:29:05.155Z,91738.22
2022-07-31T15:32:08.403Z,91738.75
2022-07-31T15:35:13.662Z,91736.34
2022-07-31T15:38:20.439Z,91748.88
2022-07-31T15:41:27.077Z,91751.69
2022-07-31T15:44:30.142Z,91752.28
2022-07-31T15:47:33.199Z,91762.69
2022-07-31T15:50:36.665Z,91772.78
2022-07-31T15:53:39.712Z,91788.94
2022-07-31T15:56:42.808Z,91788.00
2022-07-31T15:59:45.844Z,91806.16
2022-07-31T16:02:49.315Z,91804.81
2022-07-31T16:05:56.186Z,91804.28
2022-07-31T16:08:59.449Z,91803.97
2022-07-31T16:12:03.757Z,91799.94
2022-07-31T16:15:09.110Z,91803.09
2022-07-31T16:18:18.247Z,91800.72
2022-07-31T16:21:21.767Z,91810.78
2022-07-31T16:24:25.252Z,91801.09
2022-07-31T16:27:28.508Z,91811.47
2022-07-31T16:30:32.169Z,91802.75
2022-07-31T16:33:35.296Z,91805.63
2022-07-31T16:36:38.339Z,91815.22
2022-07-31T16:39:41.386Z,91806.97
2022-07-31T16:42:46.573Z,91798.66
2022-07-31T16:45:49.725Z,91809.84
2022-07-31T16:48:52.834Z,91814.69
2022-07-31T16:51:55.900Z,91810.06
2022-07-31T16:54:58.892Z,91822.44
2022-07-31T16:58:01.928Z,91830.69
2022-07-31T17:01:05.178Z,91835.75
2022-07-31T17:04:28.881Z,91845.41
2022-07-31T17:07:31.871Z,91858.56
2022-07-31T17:10:35.163Z,91861.97
2022-07-31T17:13:38.202Z,91865.88
2022-07-31T17:16:46.430Z,91855.25
2022-07-31T17:19:55.225Z,91836.66
2022-07-31T17:22:58.449Z,91834.41
2022-07-31T17:26:01.599Z,91822.81
2022-07-31T17:29:04.737Z,91831.13
2022-07-31T17:32:07.892Z,91831.25
2022-07-31T17:35:13.977Z,91818.63
2022-07-31T17:38:16.970Z,91804.47
2022-07-31T17:41:24.700Z,91806.16
2022-07-31T17:44:28.722Z,91796.56
2022-07-31T17:47:31.947Z,91792.63
2022-07-31T17:50:36.334Z,91791.78
2022-07-31T17:53:54.521Z,91790.41
2022-07-31T17:57:01.610Z,91786.94
2022-07-31T18:00:07.407Z,91781.69
2022-07-31T18:03:10.580Z,91780.44
2022-07-31T18:06:13.609Z,91781.81
2022-07-31T18:09:19.670Z,91780.94
2022-07-31T18:12:24.911Z,91782.63
2022-07-31T18:15:34.393Z,91778.06
2022-07-31T18:18:37.990Z,91778.94
2022-07-31T18:21:41.241Z,91769.03
2022-07-31T18:24:44.308Z,91769.03
2022-07-31T18:27:47.370Z,91769.69
2022-07-31T18:30:50.445Z,91763.34
2022-07-31T18:33:54.041Z,91759.50
2022-07-31T18:36:57.256Z,91767.41
2022-07-31T18:40:00.261Z,91765.81
2022-07-31T18:43:04.656Z,91768.66
2022-07-31T18:46:07.694Z,91765.16
2022-07-31T18:51:01.761Z,91774.72
2022-07-31T18:52:33.788Z,91784.19
2022-07-31T18:55:36.830Z,91780.34
2022-07-31T18:58:42.336Z,91781.22
2022-07-31T19:01:45.444Z,91780.72
2022-07-31T19:04:48.538Z,91772.56
2022-07-31T19:07:51.594Z,91758.25
2022-07-31T19:10:54.672Z,91770.91
2022-07-31T19:13:57.727Z,91786.16
2022-07-31T19:17:01.764Z,91792.09
2022-07-31T19:20:08.054Z,91787.94
2022-07-31T19:23:15.658Z,91784.56
2022-07-31T19:26:18.710Z,91791.91
2022-07-31T19:29:22.604Z,91788.91
2022-07-31T19:32:25.673Z,91785.75
2022-07-31T19:35:28.845Z,91792.19
2022-07-31T19:38:33.425Z,91793.16
2022-07-31T19:41:36.528Z,91795.28
2022-07-31T19:44:39.873Z,91792.94
2022-07-31T19:47:43.781Z,91789.44
2022-07-31T19:50:46.922Z,91790.28
2022-07-31T19:53:50.074Z,91796.75
2022-07-31T19:56:53.078Z,91790.19
2022-07-31T19:59:56.187Z,91795.28
2022-07-31T20:02:59.217Z,91804.69
2022-07-31T20:06:03.655Z,91798.75
2022-07-31T20:09:07.369Z,91791.97
2022-07-31T20:12:10.600Z,91798.13
2022-07-31T20:15:13.812Z,91799.41
2022-07-31T20:18:26.706Z,91802.69
2022-07-31T20:21:35.295Z,91806.16
2022-07-31T20:24:39.263Z,91805.00
2022-07-31T20:27:42.305Z,91803.94
2022-07-31T20:30:45.419Z,91808.16
2022-07-31T20:33:57.779Z,91804.69
2022-07-31T20:37:01.419Z,91807.34
2022-07-31T20:40:04.803Z,91808.38
2022-07-31T20:43:07.922Z,91805.41
2022-07-31T20:46:12.401Z,91811.22
2022-07-31T20:49:19.649Z,91818.53
2022-07-31T20:52:37.874Z,91818.34
2022-07-31T20:55:40.934Z,91814.28
2022-07-31T20:58:46.200Z,91813.75
2022-07-31T21:01:53.969Z,91816.41
2022-07-31T21:04:57.157Z,91809.63
2022-07-31T21:08:00.223Z,91810.91
2022-07-31T21:11:03.289Z,91806.16
2022-07-31T21:14:06.345Z,91800.22
2022-07-31T21:17:09.399Z,91810.81
2022-07-31T21:20:13.311Z,91809.00
2022-07-31T21:23:17.059Z,91815.56
2022-07-31T21:26:21.595Z,91819.72
2022-07-31T21:29:24.834Z,91822.38
2022-07-31T21:32:28.369Z,91824.63
2022-07-31T21:35:36.337Z,91825.91
2022-07-31T21:38:40.898Z,91827.59
2022-07-31T21:41:44.291Z,91821.53
2022-07-31T21:44:47.704Z,91815.50
2022-07-31T21:47:52.869Z,91817.91
2022-07-31T21:50:56.745Z,91833.91
2022-07-31T21:53:59.733Z,91837.63
2022-07-31T21:57:03.649Z,91837.59
2022-07-31T22:00:13.601Z,91849.09
2022-07-31T22:03:16.981Z,91853.84
2022-07-31T22:06:38.578Z,91860.09
2022-07-31T22:09:41.629Z,91854.28
2022-07-31T22:12:45.878Z,91856.38
2022-07-31T22:15:55.525Z,91854.31
2022-07-31T22:19:02.951Z,91856.72
2022-07-31T22:22:06.551Z,91864.25
2022-07-31T22:25:10.432Z,91871.31
2022-07-31T22:28:13.593Z,91876.78
2022-07-31T22:31:16.846Z,91871.38
2022-07-31T22:34:37.313Z,91880.28
2022-07-31T22:37:43.196Z,91877.78
2022-07-31T22:40:46.223Z,91881.53
2022-07-31T22:44:11.320Z,91879.97
2022-07-31T22:47:12.629Z,91878.31
2022-07-31T22:50:15.895Z,91877.59
2022-07-31T22:53:19.237Z,91876.00
2022-07-31T22:56:22.448Z,91880.84
2022-07-31T22:59:25.548Z,91885.50
2022-07-31T23:02:28.714Z,91878.91
2022-07-31T23:06:28.110Z,91888.63
2022-07-31T23:08:55.288Z,91893.97
2022-07-31T23:11:59.459Z,91898.69
2022-07-31T23:15:02.540Z,91903.75
2022-07-31T23:18:05.660Z,91890.41
2022-07-31T23:21:08.677Z,91881.41
2022-07-31T23:24:13.631Z,91881.75
2022-07-31T23:27:16.591Z,91893.56
2022-07-31T23:30:19.626Z,91894.16
2022-07-31T23:33:22.688Z,91900.53
2022-07-31T23:36:25.755Z,91903.13
2022-07-31T23:39:29.017Z,91892.47
2022-07-31T23:42:40.997Z,91888.63
2022-07-31T23:45:44.174Z,91888.78
2022-07-31T23:48:47.285Z,91878.00
2022-07-31T23:51:50.381Z,91888.75
2022-07-31T23:54:53.418Z,91883.19
2022-07-31T23:57:58.136Z,91879.81
